Etusivu
METAR-TAF:

METAR-TAF

Lentoasemat :

Newberry, Michigan, Yhdysvallat

Leveyspiiri: 46-18-40N, Pituuspiiri: 085-27-26W, korkeus merenpinnasta: 265 m

Tämänhetkinen sää

Tämä raportti tehtiin 11 minuuttia sitten, kello 02.19 UTC
Tuuli 5 kn kaakosta
Lämpötila 5°C
Kosteus 93%
Ilmanpaine 1014 hPa
Näkyvyys: 16.1 km
selkeää

METAR: KERY 190219Z AUTO 13005KT 10SM CLR 05/04 A2993 RMK AO2 T00520040

Aika: 22:30 (02:30 UTC)


TAF: puuttuu

Säähavainnot ja -ennusteet yli 4000 lentoasemalta (METAR- ja TAF-raportit).

Käytössä olevat sääasemat on merkitty karttaan keltaisilla ja punaisilla pisteillä.

Aseta hiiri pisteen päälle nähdäksesi sääaseman nimen.

Klikkaa sitten nähdäksesi säähavainnot ja -ennusteet.

Kartan vaihtaminen: klikkaa mustalla rastilla varustettuja vihreitä pisteitä, niin voit zoomata sisään; viivalla varustettua vihreää pistettä, niin voit zoomata ulos tai vihreitä nuolia, niin pääset viereisille kartoille.


METAR-TAF: